Time;durP1;ratioP1;P1;durP2;ratioP2;P2;SDS_P1;SDS_P2;PMS_P1;PMS_P2;Temp;Humidity;BMP_temperature;BMP_pressure;BME280_temperature;BME280_humidity;BME280_pressure;Samples;Min_cycle;Max_cycle;Signal;HPM_P1;HPM_P2
2021/04/21 00:00:19;;;;;;;21.38;13.73;;;6.80;66.40;;;;;;5061099;28;20029;-63
2021/04/21 00:02:50;;;;;;;20.92;12.15;;;6.70;66.20;;;;;;5053818;28;20033;-63
2021/04/21 00:05:19;;;;;;;21.67;13.02;;;6.70;66.30;;;;;;5057403;28;20037;-63
2021/04/21 00:07:51;;;;;;;21.13;13.02;;;6.60;66.30;;;;;;5054878;28;20476;-64
2021/04/21 00:10:22;;;;;;;22.33;13.38;;;6.60;66.40;;;;;;5059171;28;20174;-63
2021/04/21 00:12:51;;;;;;;20.52;12.85;;;6.60;66.30;;;;;;5062965;28;20115;-63
2021/04/21 00:15:24;;;;;;;20.45;13.30;;;6.60;67.40;;;;;;5063610;28;20181;-64
2021/04/21 00:18:02;;;;;;;23.25;13.45;;;6.60;66.80;;;;;;5057284;28;20032;-64
2021/04/21 00:20:30;;;;;;;22.20;13.50;;;6.50;66.90;;;;;;5061909;28;20035;-64
2021/04/21 00:23:04;;;;;;;22.30;13.75;;;6.50;66.70;;;;;;5057680;28;20036;-63
2021/04/21 00:25:33;;;;;;;23.55;13.55;;;6.40;67.00;;;;;;5058926;28;20032;-63
2021/04/21 00:28:08;;;;;;;21.95;13.65;;;6.40;67.20;;;;;;5078458;28;20033;-65
2021/04/21 00:30:36;;;;;;;20.40;12.93;;;6.30;67.20;;;;;;5054133;28;20032;-64
2021/04/21 00:33:03;;;;;;;25.17;14.10;;;6.30;67.40;;;;;;5061674;28;20029;-64
2021/04/21 00:35:35;;;;;;;19.85;12.43;;;6.30;67.20;;;;;;5055090;28;20614;-63
2021/04/21 00:38:06;;;;;;;20.75;13.02;;;6.30;68.00;;;;;;5054519;28;20082;-64
2021/04/21 00:40:46;;;;;;;20.52;12.70;;;6.20;67.60;;;;;;5061808;28;20082;-63
2021/04/21 00:43:46;;;;;;;22.33;13.07;;;6.20;69.40;;;;;;5054784;28;20571;-63
2021/04/21 00:46:20;;;;;;;24.67;14.00;;;6.10;68.70;;;;;;5057530;28;20039;-64
2021/04/21 00:49:13;;;;;;;22.20;14.13;;;6.10;68.10;;;;;;5060534;28;20039;-63
2021/04/21 00:51:54;;;;;;;23.10;14.40;;;6.10;69.40;;;;;;5054827;28;20033;-63
2021/04/21 00:54:41;;;;;;;25.23;13.02;;;6.00;69.00;;;;;;5059204;28;20028;-63
2021/04/21 00:57:31;;;;;;;19.80;13.05;;;6.00;69.20;;;;;;5061420;28;20581;-64
2021/04/21 01:00:12;;;;;;;23.08;13.57;;;6.00;69.20;;;;;;5060974;28;20416;-63
2021/04/21 01:03:03;;;;;;;19.50;11.68;;;6.00;68.90;;;;;;5056570;28;20028;-63
2021/04/21 01:05:45;;;;;;;20.42;12.77;;;6.00;68.90;;;;;;5060830;28;21018;-64
2021/04/21 01:08:13;;;;;;;20.67;12.55;;;6.00;68.40;;;;;;5063922;28;20127;-63
2021/04/21 01:10:46;;;;;;;21.73;13.10;;;6.00;67.70;;;;;;5058719;28;20067;-65
2021/04/21 01:13:13;;;;;;;23.02;13.38;;;6.00;67.80;;;;;;5064894;28;20033;-64
2021/04/21 01:15:41;;;;;;;21.50;12.93;;;6.10;67.60;;;;;;5061927;28;20060;-63
2021/04/21 01:18:12;;;;;;;21.80;13.23;;;6.00;67.70;;;;;;5066511;28;20032;-63
2021/04/21 01:20:56;;;;;;;19.85;12.35;;;6.00;67.70;;;;;;5064433;28;20643;-63
2021/04/21 01:23:52;;;;;;;18.92;12.38;;;6.00;67.80;;;;;;5061528;28;20508;-64
2021/04/21 01:26:38;;;;;;;19.77;12.30;;;6.00;68.00;;;;;;5062941;28;20032;-63
2021/04/21 01:29:05;;;;;;;21.67;12.82;;;6.00;67.90;;;;;;5065241;28;20672;-63
2021/04/21 01:31:37;;;;;;;22.38;13.25;;;6.00;67.20;;;;;;5071844;28;20115;-63
2021/04/21 01:34:09;;;;;;;21.48;13.00;;;6.00;67.00;;;;;;5064471;28;20490;-63
2021/04/21 01:36:37;;;;;;;19.08;12.77;;;6.00;67.00;;;;;;5065831;28;20421;-64
2021/04/21 01:39:04;;;;;;;20.90;13.30;;;6.00;67.00;;;;;;5066387;28;20032;-64
2021/04/21 01:41:40;;;;;;;22.60;13.50;;;6.00;67.00;;;;;;5059368;28;20273;-65
2021/04/21 01:44:12;;;;;;;22.63;13.57;;;5.90;67.20;;;;;;5065029;28;20044;-64
2021/04/21 01:46:41;;;;;;;20.27;12.98;;;5.90;67.10;;;;;;5059812;28;20028;-63
2021/04/21 01:49:36;;;;;;;22.52;13.88;;;5.80;67.20;;;;;;5060534;28;20130;-65
2021/04/21 01:52:24;;;;;;;23.17;13.38;;;5.80;68.50;;;;;;5059381;28;20145;-63
2021/04/21 01:54:59;;;;;;;22.02;13.38;;;5.70;67.80;;;;;;5068314;28;20033;-63
2021/04/21 01:57:44;;;;;;;24.80;13.90;;;5.70;67.60;;;;;;5062521;28;20041;-64
2021/04/21 02:00:29;;;;;;;24.35;14.20;;;5.70;68.10;;;;;;5068114;28;20447;-63
2021/04/21 02:03:09;;;;;;;;;;;5.60;68.00;;;;;;5063753;28;20469;-63
2021/04/21 02:06:14;;;;;;;21.20;13.55;;;5.60;68.90;;;;;;5060494;28;19921;-65
2021/04/21 02:09:03;;;;;;;25.67;13.90;;;5.50;68.30;;;;;;5031868;28;20108;-64
2021/04/21 02:11:32;;;;;;;24.92;14.15;;;5.50;67.60;;;;;;5058800;28;20155;-63
2021/04/21 02:14:22;;;;;;;23.70;13.90;;;5.40;67.60;;;;;;5062364;28;20075;-64
2021/04/21 02:17:09;;;;;;;23.02;13.40;;;5.40;68.60;;;;;;5061130;28;20056;-64
2021/04/21 02:19:42;;;;;;;20.05;12.30;;;5.30;67.60;;;;;;5062031;28;20067;-63
2021/04/21 02:22:34;;;;;;;23.88;13.75;;;5.30;68.00;;;;;;5060422;28;20028;-63
2021/04/21 02:25:17;;;;;;;23.27;13.98;;;5.30;68.30;;;;;;5067883;28;20036;-64
2021/04/21 02:27:54;;;;;;;25.02;14.13;;;5.30;68.30;;;;;;5063673;28;20040;-64
2021/04/21 02:30:48;;;;;;;26.33;15.57;;;5.20;68.40;;;;;;5063594;28;20056;-63
2021/04/21 02:33:17;;;;;;;27.50;14.43;;;5.20;69.10;;;;;;5060252;28;20910;-64
2021/04/21 02:35:48;;;;;;;24.75;14.48;;;5.20;68.20;;;;;;5061765;28;20033;-63
2021/04/21 02:38:32;;;;;;;24.27;14.63;;;5.10;68.10;;;;;;5064700;28;20060;-64
2021/04/21 02:41:08;;;;;;;22.83;14.18;;;5.20;69.00;;;;;;5068190;28;20028;-65
2021/04/21 02:44:06;;;;;;;22.63;13.30;;;5.10;68.70;;;;;;5063760;28;20554;-63
2021/04/21 02:46:40;;;;;;;26.48;13.60;;;5.10;68.70;;;;;;5060569;28;20074;-63
2021/04/21 02:49:36;;;;;;;21.60;13.43;;;5.10;68.30;;;;;;5060990;28;20125;-64
2021/04/21 02:52:30;;;;;;;22.55;14.05;;;5.10;68.60;;;;;;5057898;28;20033;-64
2021/04/21 02:55:07;;;;;;;24.92;13.95;;;5.00;68.90;;;;;;5058008;28;20222;-64
2021/04/21 02:57:49;;;;;;;24.17;14.55;;;5.00;68.40;;;;;;5062378;28;20028;-65
2021/04/21 03:00:26;;;;;;;24.67;14.85;;;5.00;68.60;;;;;;5062404;28;20036;-63
2021/04/21 03:03:14;;;;;;;26.42;16.13;;;4.90;68.40;;;;;;5061741;28;20028;-63
2021/04/21 03:05:47;;;;;;;31.02;15.63;;;4.90;69.10;;;;;;5067316;28;20040;-63
2021/04/21 03:08:29;;;;;;;28.10;15.70;;;4.80;68.40;;;;;;5066964;28;20033;-64
2021/04/21 03:11:04;;;;;;;26.77;16.13;;;4.80;68.80;;;;;;5060386;28;20057;-65
2021/04/21 03:13:33;;;;;;;;;;;4.80;68.90;;;;;;5065266;28;20020;-63
2021/04/21 03:16:06;;;;;;;29.38;16.85;;;4.70;69.80;;;;;;5064794;28;21646;-63
2021/04/21 03:18:34;;;;;;;30.30;17.77;;;4.70;68.80;;;;;;5061783;28;20028;-64
2021/04/21 03:21:25;;;;;;;33.05;18.40;;;4.60;68.90;;;;;;5064760;28;20190;-63
2021/04/21 03:23:58;;;;;;;31.13;17.80;;;4.60;70.10;;;;;;5064762;28;20032;-63
2021/04/21 03:26:26;;;;;;;32.67;18.13;;;4.60;69.70;;;;;;5064108;28;20029;-63
2021/04/21 03:29:01;;;;;;;31.25;18.52;;;4.60;69.40;;;;;;5058348;28;20037;-63
2021/04/21 03:31:32;;;;;;;;;;;4.60;69.50;;;;;;5061355;28;20036;-63
2021/04/21 03:34:02;;;;;;;30.02;16.33;;;4.60;70.40;;;;;;5061181;28;19912;-64
2021/04/21 03:36:29;;;;;;;27.80;16.90;;;4.60;68.90;;;;;;5062874;28;20519;-56
2021/04/21 03:38:57;;;;;;;31.08;17.25;;;4.60;68.90;;;;;;5065326;28;20029;-62
2021/04/21 03:41:23;;;;;;;28.27;16.73;;;4.60;68.80;;;;;;5065264;28;20073;-63
2021/04/21 03:43:53;;;;;;;27.15;16.92;;;4.60;68.90;;;;;;5066290;28;20158;-63
2021/04/21 03:46:22;;;;;;;41.05;16.88;;;4.60;68.90;;;;;;5063915;28;20436;-63
2021/04/21 03:48:51;;;;;;;29.27;17.20;;;4.60;69.00;;;;;;5055946;28;20672;-63
2021/04/21 03:51:19;;;;;;;27.98;16.45;;;4.60;69.00;;;;;;5058042;28;20040;-64
2021/04/21 03:53:48;;;;;;;26.65;16.35;;;4.60;68.90;;;;;;5056108;28;20029;-63
2021/04/21 03:56:25;;;;;;;28.50;16.45;;;4.60;69.10;;;;;;5064646;28;20082;-64
2021/04/21 03:58:55;;;;;;;32.95;17.60;;;4.60;69.20;;;;;;5062289;28;20076;-64
2021/04/21 04:01:25;;;;;;;29.73;17.23;;;4.50;68.70;;;;;;5060278;28;20059;-63
2021/04/21 04:03:59;;;;;;;27.38;15.32;;;4.60;68.80;;;;;;5064988;28;20037;-63
2021/04/21 04:06:39;;;;;;;29.25;15.65;;;4.50;68.80;;;;;;5065252;28;20028;-63
2021/04/21 04:09:13;;;;;;;26.50;15.30;;;4.50;68.90;;;;;;5063337;28;20043;-63
2021/04/21 04:11:43;;;;;;;29.70;16.13;;;4.50;68.70;;;;;;5053454;28;20032;-64
2021/04/21 04:14:18;;;;;;;32.05;16.35;;;4.40;68.60;;;;;;5061298;28;20055;-63
2021/04/21 04:16:52;;;;;;;29.05;16.17;;;4.40;68.90;;;;;;5057958;28;20040;-64
2021/04/21 04:19:21;;;;;;;28.60;16.70;;;4.40;68.70;;;;;;5063731;28;20029;-64
2021/04/21 04:22:04;;;;;;;28.52;16.58;;;4.30;68.60;;;;;;5059936;28;20376;-63
2021/04/21 04:24:38;;;;;;;31.52;16.85;;;4.30;69.30;;;;;;5061589;28;20191;-64
2021/04/21 04:27:13;;;;;;;34.08;17.15;;;4.30;68.70;;;;;;5058206;28;20035;-63
2021/04/21 04:29:43;;;;;;;29.08;16.90;;;4.30;68.70;;;;;;5053465;28;20033;-64
2021/04/21 04:32:18;;;;;;;30.33;17.63;;;4.30;68.80;;;;;;5052563;28;20032;-63
2021/04/21 04:34:54;;;;;;;32.75;18.02;;;4.20;68.90;;;;;;5063476;28;20921;-61
2021/04/21 04:37:26;;;;;;;29.50;17.83;;;4.20;69.00;;;;;;5065353;28;20028;-64
2021/04/21 04:40:00;;;;;;;39.95;21.13;;;4.20;69.20;;;;;;5065790;28;20021;-65
2021/04/21 04:42:29;;;;;;;32.00;19.70;;;4.10;69.70;;;;;;5064266;28;20552;-62
2021/04/21 04:44:58;;;;;;;34.92;19.88;;;4.10;69.90;;;;;;5067369;28;20044;-64
2021/04/21 04:47:28;;;;;;;34.13;19.00;;;4.10;70.00;;;;;;5065334;28;20075;-64
2021/04/21 04:50:18;;;;;;;37.60;20.50;;;4.10;70.00;;;;;;5064075;28;20044;-64
2021/04/21 04:52:47;;;;;;;37.75;21.02;;;4.10;70.80;;;;;;5066458;28;20427;-64
2021/04/21 04:55:18;;;;;;;40.42;21.20;;;4.10;70.10;;;;;;5063848;28;20052;-62
2021/04/21 04:57:49;;;;;;;40.42;21.90;;;4.10;70.60;;;;;;5065114;28;20448;-63
2021/04/21 05:00:27;;;;;;;38.17;21.48;;;4.10;71.50;;;;;;5062343;28;20024;-65
2021/04/21 05:02:59;;;;;;;35.38;19.70;;;4.10;71.00;;;;;;5065787;28;20060;-62
2021/04/21 05:05:27;;;;;;;44.38;23.20;;;4.10;70.60;;;;;;5065767;28;20029;-63
2021/04/21 05:08:04;;;;;;;37.15;21.02;;;4.10;70.70;;;;;;5065486;28;20028;-64
2021/04/21 05:10:35;;;;;;;36.25;19.23;;;4.20;71.20;;;;;;5060911;28;20033;-63
2021/04/21 05:13:11;;;;;;;43.92;22.05;;;4.20;70.80;;;;;;5065208;28;20036;-63
2021/04/21 05:15:53;;;;;;;44.35;19.85;;;4.20;71.10;;;;;;5064682;28;20406;-63
2021/04/21 05:18:24;;;;;;;40.25;21.30;;;4.30;71.00;;;;;;5062589;28;20029;-64
2021/04/21 05:21:08;;;;;;;37.78;21.85;;;4.30;70.80;;;;;;5063450;28;20440;-63
2021/04/21 05:23:51;;;;;;;40.75;21.05;;;4.40;70.80;;;;;;5064669;28;20505;-63
2021/04/21 05:26:31;;;;;;;43.53;22.95;;;4.50;71.30;;;;;;5065721;28;20505;-63
2021/04/21 05:29:23;;;;;;;38.25;21.30;;;4.50;71.30;;;;;;5065088;28;20041;-64
2021/04/21 05:32:04;;;;;;;40.63;21.77;;;4.50;72.20;;;;;;5062624;28;20489;-64
2021/04/21 05:35:20;;;;;;;42.17;23.90;;;4.60;72.30;;;;;;5064905;28;20052;-62
2021/04/21 05:38:07;;;;;;;42.95;22.85;;;4.60;72.90;;;;;;5065187;28;20033;-63
2021/04/21 05:41:10;;;;;;;47.75;24.67;;;4.60;72.70;;;;;;5064153;28;20024;-61
2021/04/21 05:43:59;;;;;;;44.40;24.42;;;4.70;73.10;;;;;;5064372;28;20524;-63
2021/04/21 05:47:02;;;;;;;53.40;25.30;;;4.70;73.40;;;;;;5065370;28;20564;-63
2021/04/21 05:50:08;;;;;;;47.78;25.23;;;4.80;73.60;;;;;;5067112;28;20116;-64
2021/04/21 05:53:00;;;;;;;40.08;23.63;;;4.80;73.70;;;;;;5065321;28;20039;-64
2021/04/21 05:55:53;;;;;;;47.95;25.23;;;5.00;73.10;;;;;;5065023;28;20067;-63
2021/04/21 05:58:40;;;;;;;47.38;24.88;;;5.10;73.90;;;;;;5063478;28;20033;-63
2021/04/21 06:01:32;;;;;;;45.40;24.98;;;5.20;73.50;;;;;;5066670;28;20051;-64
2021/04/21 06:04:05;;;;;;;47.97;25.88;;;5.20;74.60;;;;;;5067670;28;20568;-64
2021/04/21 06:06:30;;;;;;;48.75;25.45;;;5.30;73.30;;;;;;5068771;28;20049;-63
2021/04/21 06:09:08;;;;;;;52.85;26.95;;;5.40;73.10;;;;;;5067928;28;20037;-64
2021/04/21 06:11:34;;;;;;;48.92;25.40;;;5.50;74.00;;;;;;5063652;28;20504;-63
2021/04/21 06:14:03;;;;;;;43.83;24.25;;;5.60;73.10;;;;;;5067373;28;20043;-63
2021/04/21 06:16:32;;;;;;;42.97;24.60;;;5.70;73.30;;;;;;5065860;28;20544;-64
2021/04/21 06:19:03;;;;;;;42.05;25.02;;;5.70;73.30;;;;;;5067289;28;20078;-64
2021/04/21 06:21:32;;;;;;;42.13;24.08;;;5.80;73.20;;;;;;5067391;28;20058;-64
2021/04/21 06:24:00;;;;;;;44.65;25.48;;;5.90;73.30;;;;;;5066937;28;20413;-63
2021/04/21 06:26:31;;;;;;;47.20;25.40;;;6.00;73.30;;;;;;5065418;28;20037;-64
2021/04/21 06:29:10;;;;;;;47.13;26.73;;;6.10;73.40;;;;;;5068600;28;20037;-63
2021/04/21 06:31:50;;;;;;;43.35;25.70;;;6.20;73.80;;;;;;5067332;28;20518;-63
2021/04/21 06:34:18;;;;;;;50.13;26.48;;;6.30;74.40;;;;;;5060977;28;20039;-63
2021/04/21 06:36:52;;;;;;;50.50;27.92;;;6.40;73.80;;;;;;5066623;28;20036;-64
2021/04/21 06:39:22;;;;;;;47.10;26.42;;;6.50;74.20;;;;;;5068173;28;20033;-63
2021/04/21 06:41:58;;;;;;;48.83;27.48;;;6.70;74.20;;;;;;5067887;28;20127;-64
2021/04/21 06:44:44;;;;;;;49.60;26.80;;;6.80;74.40;;;;;;5066252;28;20029;-64
2021/04/21 06:47:22;;;;;;;51.90;26.90;;;6.90;74.70;;;;;;5066605;28;20040;-64
2021/04/21 06:50:11;;;;;;;45.13;26.40;;;7.00;74.60;;;;;;5067940;28;20468;-64
2021/04/21 06:52:42;;;;;;;49.13;27.63;;;7.10;75.10;;;;;;5067207;28;20032;-64
2021/04/21 06:55:14;;;;;;;49.30;27.33;;;7.20;74.20;;;;;;5066826;28;20400;-64
2021/04/21 06:57:42;;;;;;;50.75;27.20;;;7.40;74.10;;;;;;5066695;28;20035;-63
2021/04/21 07:00:22;;;;;;;52.13;28.92;;;7.50;74.30;;;;;;5065346;28;20107;-64
2021/04/21 07:02:54;;;;;;;50.58;30.08;;;7.60;74.20;;;;;;5055035;28;20111;-63
2021/04/21 07:05:35;;;;;;;50.20;29.08;;;7.70;74.60;;;;;;5061484;28;20025;-62
2021/04/21 07:08:05;;;;;;;52.50;30.70;;;7.80;75.40;;;;;;5063375;28;20036;-63
2021/04/21 07:10:34;;;;;;;50.50;30.80;;;7.90;74.70;;;;;;5061251;28;20036;-63
2021/04/21 07:13:00;;;;;;;50.03;29.55;;;8.10;75.00;;;;;;5065197;28;20519;-63
2021/04/21 07:15:30;;;;;;;48.10;29.85;;;8.20;74.50;;;;;;5064695;28;20055;-63
2021/04/21 07:18:02;;;;;;;50.38;29.25;;;8.30;74.20;;;;;;5065785;28;20044;-64
2021/04/21 07:20:35;;;;;;;47.95;30.25;;;8.40;74.20;;;;;;5058316;28;20028;-63
2021/04/21 07:23:03;;;;;;;47.55;28.60;;;8.50;74.50;;;;;;5064814;28;20028;-63
2021/04/21 07:25:32;;;;;;;50.72;29.98;;;8.60;74.00;;;;;;5066652;28;20115;-64
2021/04/21 07:28:00;;;;;;;46.08;28.58;;;8.70;74.50;;;;;;5066637;28;20048;-63
2021/04/21 07:30:28;;;;;;;48.28;28.58;;;8.80;73.50;;;;;;5065868;28;20528;-64
2021/04/21 07:32:54;;;;;;;47.85;28.85;;;8.90;73.20;;;;;;5065565;28;20506;-63
2021/04/21 07:35:23;;;;;;;50.65;30.25;;;9.00;73.90;;;;;;5058945;28;20421;-63
2021/04/21 07:37:56;;;;;;;48.53;28.85;;;9.20;73.00;;;;;;5065799;28;20540;-64
2021/04/21 07:40:45;;;;;;;42.20;26.58;;;9.30;73.00;;;;;;5063769;28;20033;-64
2021/04/21 07:43:21;;;;;;;44.03;26.88;;;9.40;72.60;;;;;;5065583;28;20040;-63
2021/04/21 07:45:51;;;;;;;46.33;28.83;;;9.50;72.30;;;;;;5066940;28;20063;-64
2021/04/21 07:48:37;;;;;;;42.67;27.20;;;9.60;72.60;;;;;;5066047;28;20033;-64
2021/04/21 07:51:21;;;;;;;42.53;27.23;;;9.80;72.80;;;;;;5065642;28;20051;-64
2021/04/21 07:53:53;;;;;;;45.30;27.23;;;9.90;72.50;;;;;;5066353;28;20504;-64
2021/04/21 07:56:23;;;;;;;42.70;25.58;;;10.00;71.90;;;;;;5065826;28;20404;-63
2021/04/21 07:58:53;;;;;;;39.75;24.38;;;10.10;71.70;;;;;;5064954;28;20033;-63
2021/04/21 08:01:35;;;;;;;42.15;25.58;;;10.20;71.60;;;;;;5063939;28;20024;-63
2021/04/21 08:04:21;;;;;;;37.80;24.08;;;10.30;72.10;;;;;;5065381;28;20080;-64
2021/04/21 08:06:51;;;;;;;37.75;23.95;;;10.50;71.00;;;;;;5063839;28;20048;-64
2021/04/21 08:09:21;;;;;;;38.03;24.77;;;10.60;70.70;;;;;;5067445;28;20048;-63
2021/04/21 08:12:08;;;;;;;37.90;24.48;;;10.70;70.50;;;;;;5062220;28;20028;-63
2021/04/21 08:14:52;;;;;;;34.92;23.35;;;10.80;70.50;;;;;;5055595;28;20024;-63
2021/04/21 08:17:19;;;;;;;33.15;21.58;;;11.00;69.70;;;;;;5061962;28;20420;-63
2021/04/21 08:19:52;;;;;;;31.90;20.92;;;11.10;69.20;;;;;;5064964;28;20488;-63
2021/04/21 08:22:30;;;;;;;31.35;20.63;;;11.20;68.80;;;;;;5065623;28;20045;-64
2021/04/21 08:24:58;;;;;;;26.65;18.55;;;11.30;68.30;;;;;;5066122;28;20520;-64
2021/04/21 08:27:25;;;;;;;26.30;18.58;;;11.40;67.50;;;;;;5062667;28;20039;-63
2021/04/21 08:29:51;;;;;;;27.95;18.73;;;11.50;67.10;;;;;;5063893;28;20430;-64
2021/04/21 08:32:24;;;;;;;29.40;18.63;;;11.60;67.20;;;;;;5063932;28;20048;-64
2021/04/21 08:34:55;;;;;;;25.35;17.63;;;11.70;66.60;;;;;;5064610;28;20025;-64
2021/04/21 08:37:23;;;;;;;25.48;15.82;;;11.80;66.50;;;;;;5058511;28;20032;-64
2021/04/21 08:39:51;;;;;;;22.50;16.10;;;11.90;65.20;;;;;;5063438;28;20028;-64
2021/04/21 08:42:20;;;;;;;24.83;17.23;;;12.00;65.30;;;;;;5060353;28;20028;-64
2021/04/21 08:44:46;;;;;;;26.98;16.92;;;12.10;65.10;;;;;;5064444;28;20041;-64
2021/04/21 08:47:16;;;;;;;23.92;16.60;;;12.20;65.10;;;;;;5062257;28;20036;-64
2021/04/21 08:49:43;;;;;;;23.35;16.23;;;12.30;64.50;;;;;;5065354;28;20485;-64
2021/04/21 08:52:19;;;;;;;20.50;14.90;;;12.40;64.30;;;;;;5056490;28;20049;-64
2021/04/21 08:54:51;;;;;;;22.55;15.70;;;12.50;63.60;;;;;;5064242;28;20551;-65
2021/04/21 08:57:20;;;;;;;20.75;14.35;;;12.60;63.50;;;;;;5062658;28;20040;-64
2021/04/21 08:59:51;;;;;;;17.33;12.35;;;12.70;63.10;;;;;;5063215;28;20033;-64
2021/04/21 09:02:21;;;;;;;20.20;14.07;;;12.80;62.20;;;;;;5065006;28;20447;-64
2021/04/21 09:04:54;;;;;;;16.13;11.80;;;12.90;61.90;;;;;;5063395;28;20025;-64
2021/04/21 09:07:25;;;;;;;16.90;12.70;;;13.00;61.90;;;;;;5062508;28;20497;-64
2021/04/21 09:09:57;;;;;;;16.48;12.65;;;13.10;61.40;;;;;;5066011;28;20044;-64
2021/04/21 09:12:27;;;;;;;18.83;13.05;;;13.30;61.20;;;;;;5060768;28;20056;-64
2021/04/21 09:14:53;;;;;;;18.08;12.52;;;13.40;60.10;;;;;;5061880;28;20032;-63
2021/04/21 09:17:24;;;;;;;16.55;12.30;;;13.50;60.10;;;;;;5063540;28;20055;-64
2021/04/21 09:19:52;;;;;;;15.85;11.88;;;13.60;59.30;;;;;;5065148;28;20029;-64
2021/04/21 09:22:22;;;;;;;16.58;12.60;;;13.70;59.40;;;;;;5063302;28;20041;-63
2021/04/21 09:24:58;;;;;;;16.23;12.20;;;13.80;58.60;;;;;;5066590;28;20025;-64
2021/04/21 09:27:35;;;;;;;15.02;11.30;;;13.90;57.80;;;;;;5068663;28;20037;-64
2021/04/21 09:30:20;;;;;;;16.10;12.48;;;14.00;58.30;;;;;;5069700;28;20044;-64
2021/04/21 09:32:52;;;;;;;;;;;14.10;58.10;;;;;;5067673;28;20029;-64
2021/04/21 09:35:32;;;;;;;13.70;9.82;;;14.20;57.40;;;;;;5067196;28;19954;-64
2021/04/21 09:38:06;;;;;;;11.73;8.73;;;14.30;57.80;;;;;;5062479;28;20560;-63
2021/04/21 09:40:53;;;;;;;11.57;8.77;;;14.40;57.10;;;;;;5068189;28;20037;-65
2021/04/21 09:43:20;;;;;;;12.95;8.85;;;14.50;56.60;;;;;;5068667;28;20045;-64
2021/04/21 09:45:51;;;;;;;11.70;8.77;;;14.60;57.30;;;;;;5068997;28;20036;-64
2021/04/21 09:48:23;;;;;;;10.20;8.30;;;14.80;56.70;;;;;;5067777;28;20064;-64
2021/04/21 09:51:05;;;;;;;11.50;9.07;;;14.90;56.00;;;;;;5083775;28;20427;-65
2021/04/21 09:53:38;;;;;;;10.73;8.10;;;15.00;54.70;;;;;;5067680;28;20032;-64
2021/04/21 09:56:11;;;;;;;10.57;8.60;;;15.10;55.40;;;;;;5068842;28;20591;-64
2021/04/21 09:58:46;;;;;;;10.57;8.95;;;15.20;54.60;;;;;;5068093;28;20124;-65
2021/04/21 10:01:31;;;;;;;11.32;9.50;;;15.30;52.10;;;;;;5059668;28;20020;-64
2021/04/21 10:04:19;;;;;;;11.32;8.65;;;15.50;51.30;;;;;;5067954;28;20409;-64
2021/04/21 10:07:00;;;;;;;11.75;8.80;;;15.50;51.70;;;;;;5064693;28;20033;-65
2021/04/21 10:09:28;;;;;;;10.55;8.35;;;15.60;51.90;;;;;;5067128;28;20033;-64
2021/04/21 10:12:15;;;;;;;10.63;8.70;;;15.70;53.00;;;;;;5062355;28;20216;-63
2021/04/21 10:14:44;;;;;;;10.43;8.05;;;15.80;52.10;;;;;;5068659;28;20037;-65
2021/04/21 10:17:13;;;;;;;10.80;7.93;;;15.80;53.10;;;;;;5084703;28;20048;-64
2021/04/21 10:19:41;;;;;;;10.57;7.10;;;15.90;52.70;;;;;;5068691;28;20074;-64
2021/04/21 10:22:14;;;;;;;8.90;7.70;;;16.00;52.20;;;;;;5068068;28;20421;-64
2021/04/21 10:24:46;;;;;;;9.57;7.95;;;16.10;51.70;;;;;;5068182;28;20028;-64
2021/04/21 10:27:13;;;;;;;9.50;7.72;;;16.20;51.50;;;;;;5066925;28;20033;-64
2021/04/21 10:29:42;;;;;;;10.73;9.00;;;16.30;51.70;;;;;;5067123;28;20074;-64
2021/04/21 10:32:14;;;;;;;10.02;8.07;;;16.40;51.40;;;;;;5067164;28;20036;-64
2021/04/21 10:34:48;;;;;;;10.25;7.72;;;16.50;50.30;;;;;;5066696;28;20021;-64
2021/04/21 10:37:16;;;;;;;10.40;7.70;;;16.60;50.00;;;;;;5067596;28;20411;-63
2021/04/21 10:39:51;;;;;;;8.18;6.95;;;16.60;49.60;;;;;;5060714;28;20028;-64
2021/04/21 10:42:17;;;;;;;8.20;7.25;;;16.70;49.30;;;;;;5068046;28;20594;-64
2021/04/21 10:44:50;;;;;;;8.95;7.72;;;16.80;49.50;;;;;;5064855;28;20075;-65
2021/04/21 10:47:27;;;;;;;10.27;7.55;;;16.90;48.60;;;;;;5065427;28;20120;-64
2021/04/21 10:50:00;;;;;;;10.20;7.93;;;16.90;48.70;;;;;;5064986;28;20060;-64
2021/04/21 10:52:30;;;;;;;10.13;8.60;;;16.90;48.20;;;;;;5064791;28;20346;-64
2021/04/21 10:55:20;;;;;;;9.20;8.05;;;17.00;47.60;;;;;;5065811;28;20127;-65
2021/04/21 10:58:00;;;;;;;9.68;8.15;;;17.00;47.90;;;;;;5056997;28;20115;-62
2021/04/21 11:00:35;;;;;;;8.75;7.57;;;17.10;47.40;;;;;;5067280;28;20489;-64
2021/04/21 11:03:31;;;;;;;9.32;7.45;;;17.10;47.60;;;;;;5066577;28;20047;-64
2021/04/21 11:06:02;;;;;;;7.97;7.05;;;17.20;46.20;;;;;;5064369;28;20029;-64
2021/04/21 11:08:51;;;;;;;10.45;7.78;;;17.20;47.60;;;;;;5066611;28;20035;-64
2021/04/21 11:11:16;;;;;;;8.25;6.80;;;17.20;47.30;;;;;;5062972;28;20051;-64
2021/04/21 11:13:47;;;;;;;7.60;6.68;;;17.30;47.50;;;;;;5066991;28;20036;-65
2021/04/21 11:16:12;;;;;;;7.15;6.18;;;17.30;46.50;;;;;;5065551;28;20072;-65
2021/04/21 11:18:39;;;;;;;7.35;6.45;;;17.40;46.90;;;;;;5064259;28;20048;-64
2021/04/21 11:21:08;;;;;;;7.18;6.15;;;17.40;46.70;;;;;;5058749;28;20541;-65
2021/04/21 11:23:55;;;;;;;7.88;6.38;;;17.50;45.90;;;;;;5066516;28;20029;-64
2021/04/21 11:26:30;;;;;;;6.38;5.75;;;17.50;44.80;;;;;;5066129;28;20041;-64
2021/04/21 11:29:07;;;;;;;9.90;7.63;;;17.60;46.30;;;;;;5066075;28;20029;-64
2021/04/21 11:31:51;;;;;;;7.90;6.55;;;17.60;43.80;;;;;;5065863;28;20040;-64
2021/04/21 11:34:28;;;;;;;8.93;6.40;;;17.70;44.30;;;;;;5066977;28;20036;-65
2021/04/21 11:37:04;;;;;;;7.05;5.90;;;17.70;45.00;;;;;;5064679;28;20103;-65
2021/04/21 11:39:44;;;;;;;9.30;6.55;;;17.70;45.00;;;;;;5066797;28;20166;-64
2021/04/21 11:42:40;;;;;;;8.30;5.85;;;17.80;44.40;;;;;;5066992;28;20064;-65
2021/04/21 11:45:12;;;;;;;6.88;5.65;;;17.80;44.00;;;;;;5063287;28;20127;-65
2021/04/21 11:47:45;;;;;;;7.47;5.70;;;17.80;45.30;;;;;;5065396;28;20511;-64
2021/04/21 11:50:11;;;;;;;6.18;4.95;;;17.90;44.40;;;;;;5062032;28;20037;-65
2021/04/21 11:52:51;;;;;;;5.97;5.38;;;17.90;44.30;;;;;;5063971;28;20032;-64
2021/04/21 11:55:29;;;;;;;8.27;4.85;;;18.00;42.80;;;;;;5081873;28;20477;-65
2021/04/21 11:57:59;;;;;;;6.05;5.20;;;18.00;42.80;;;;;;5065737;28;20059;-65
2021/04/21 12:00:28;;;;;;;6.70;5.32;;;18.10;43.20;;;;;;5062914;28;20439;-65
2021/04/21 12:02:54;;;;;;;6.53;5.45;;;18.10;43.50;;;;;;5064782;28;20394;-64
2021/04/21 12:05:27;;;;;;;7.78;5.80;;;18.20;43.40;;;;;;5066124;28;20501;-64
2021/04/21 12:07:56;;;;;;;6.40;5.28;;;18.20;42.10;;;;;;5066297;28;20490;-65
2021/04/21 12:10:25;;;;;;;5.82;5.25;;;18.30;42.00;;;;;;5061883;28;20047;-65
2021/04/21 12:12:56;;;;;;;17.40;5.93;;;18.30;42.20;;;;;;5065661;28;20040;-65
2021/04/21 12:15:23;;;;;;;6.38;5.32;;;18.30;41.60;;;;;;5065124;28;20036;-64
2021/04/21 12:17:56;;;;;;;6.72;4.95;;;18.30;41.90;;;;;;5065680;28;20036;-65
2021/04/21 12:20:32;;;;;;;5.40;4.50;;;18.30;41.50;;;;;;5065294;28;20033;-65
2021/04/21 12:23:00;;;;;;;5.47;4.00;;;18.30;40.90;;;;;;5065345;28;20765;-65
2021/04/21 12:25:29;;;;;;;4.88;4.40;;;18.30;42.00;;;;;;5065084;28;20516;-64
2021/04/21 12:28:03;;;;;;;4.60;4.10;;;18.30;41.50;;;;;;5079960;28;20055;-64
2021/04/21 12:30:34;;;;;;;5.30;4.45;;;18.30;40.70;;;;;;5066141;28;20116;-65
2021/04/21 12:33:11;;;;;;;5.28;4.78;;;18.40;41.30;;;;;;5064248;28;20155;-65
2021/04/21 12:35:41;;;;;;;7.10;5.40;;;18.40;40.10;;;;;;5064742;28;20509;-64
2021/04/21 12:38:11;;;;;;;7.18;5.00;;;18.50;40.40;;;;;;5066006;28;20036;-65
2021/04/21 12:40:41;;;;;;;5.10;4.60;;;18.50;40.50;;;;;;5063741;28;20064;-65
2021/04/21 12:43:13;;;;;;;6.22;5.15;;;18.50;40.90;;;;;;5064239;28;20032;-64
2021/04/21 12:45:40;;;;;;;6.28;5.68;;;18.50;40.10;;;;;;5063473;28;20460;-65
2021/04/21 12:48:22;;;;;;;5.70;5.10;;;18.50;40.60;;;;;;5064700;28;20490;-65
2021/04/21 12:50:53;;;;;;;5.25;4.75;;;18.60;40.10;;;;;;5061668;28;20520;-64
2021/04/21 12:53:23;;;;;;;5.28;4.47;;;18.60;40.90;;;;;;5057365;28;20032;-64
2021/04/21 12:56:06;;;;;;;6.00;5.40;;;18.60;40.40;;;;;;5061122;28;20048;-64
2021/04/21 12:58:44;;;;;;;6.07;4.82;;;18.60;38.60;;;;;;5068633;28;20455;-65
2021/04/21 13:01:23;;;;;;;5.15;4.55;;;18.60;39.20;;;;;;5070798;28;20033;-65
2021/04/21 13:04:01;;;;;;;5.82;4.90;;;18.70;39.40;;;;;;5070709;28;20055;-65
2021/04/21 13:06:55;;;;;;;5.18;4.68;;;18.70;38.30;;;;;;5068917;28;20052;-64
2021/04/21 13:09:27;;;;;;;7.95;6.53;;;18.70;36.40;;;;;;5083467;28;20123;-64
2021/04/21 13:12:02;;;;;;;8.27;6.43;;;18.70;39.40;;;;;;5062909;28;20037;-64
2021/04/21 13:14:43;;;;;;;7.93;6.50;;;18.60;39.40;;;;;;5061391;28;20509;-64
2021/04/21 13:17:10;;;;;;;6.35;5.53;;;18.50;39.90;;;;;;5069611;28;20390;-65
2021/04/21 13:19:47;;;;;;;6.20;5.00;;;18.30;39.90;;;;;;5071729;28;20032;-64